RJAK(METAR)
06/25 08:00
METAR RJAK 242300Z 16004KT 6000 FEW006 BKN010 BKN015 20/17 Q1018 RMK
1ST006 5ST010 5SC015 A3006=
戻る
トップページへ戻る
IMOC Co,.Ltd.